Thursday, May 24, 2018, 12:31 AM EDT
Back to Local

KWVL, Waterville, Waterville Robert Lafleur Airport

Location: Waterville, ME, United States Lat: 44.533
Local Time: 12:31 AM EDT ( 4:31 GMT) Lon: -69.683
Time Zone: US/Eastern Elev: 334 ft

Show me the last for .
Show Decoded

2018-05-23 23:56 METAR KWVL 240356Z AUTO 04005KT 10SM FEW120 11/04 A2999 RMK AO2 SLP181 T01110039
                 $ =
2018-05-23 22:56 METAR KWVL 240256Z AUTO 03005KT 10SM CLR 11/04 A2997 RMK AO2 SLP176 T01110044
                 51015 $ =
2018-05-23 21:56 METAR KWVL 240156Z AUTO 04007KT 10SM CLR 13/04 A2997 RMK AO2 SLP174 T01280044 $
                 =
2018-05-23 20:56 METAR KWVL 240056Z AUTO 03010G14KT 10SM CLR 14/07 A2995 RMK AO2 SLP170 T01390067
                 $ =
2018-05-23 19:56 METAR KWVL 232356Z AUTO 03009KT 10SM CLR 15/08 A2993 RMK AO2 SLP162 T01500078
                 10261 20150 51037 $ =
2018-05-23 18:56 METAR KWVL 232256Z AUTO 01013KT 9SM CLR 17/06 A2990 RMK AO2 SLP151 T01720061 $ =
2018-05-23 17:56 METAR KWVL 232156Z AUTO 02012G17KT 10SM CLR 18/10 A2988 RMK AO2 SLP142 T01780100
                 $ =
2018-05-23 16:56 METAR KWVL 232056Z AUTO 36014G22KT 10SM CLR 19/11 A2982 RMK AO2 WSHFT 2014
                 SLP124 T01940106 52029 =
2018-05-23 16:34 METAR KWVL 232034Z AUTO 01015G20KT 10SM FEW070 21/11 A2981 RMK AO2 WSHFT 2014 =
2018-05-23 15:56 METAR KWVL 231956Z AUTO 32009G17KT 10SM SCT060 23/10 A2979 RMK AO2 SLP112
                 T02330100 =
2018-05-23 14:56 METAR KWVL 231856Z AUTO 36014G25KT 10SM CLR 23/13 A2977 RMK AO2 PK WND
                 01028/1813 WSHFT 1806 LTG DSNT SE AND SW SLP105 T02330128 =
2018-05-23 14:26 METAR KWVL 231826Z AUTO 36017G24KT 10SM CLR 23/12 A2975 RMK AO2 PK WND
                 01028/1813 WSHFT 1806 LTG DSNT E AND SW =
2018-05-23 13:56 METAR KWVL 231756Z AUTO VRB04KT 10SM CLR 25/12 A2973 RMK AO2 LTG DSNT N AND NE
                 SLP093 T02500117 10250 20156 58017 =
2018-05-23 12:56 METAR KWVL 231656Z AUTO 27005KT 10SM CLR 23/12 A2976 RMK AO2 SLP102 T02330117 =
2018-05-23 11:56 METAR KWVL 231556Z AUTO VRB03KT 10SM CLR 22/12 A2979 RMK AO2 SLP113 T02220117 =
2018-05-23 10:56 METAR KWVL 231456Z AUTO VRB03KT 10SM CLR 21/12 A2978 RMK AO2 SLP111 T02060117
                 58014 =
2018-05-23 09:56 METAR KWVL 231356Z AUTO 30007KT 10SM SCT030 19/12 A2982 RMK AO2 SLP122 T01890117
                 $ =
2018-05-23 08:56 METAR KWVL 231256Z AUTO 30006KT 10SM SCT020 17/12 A2983 RMK AO2 SLP126 T01720122
                 TSNO $ =
2018-05-23 07:56 METAR KWVL 231156Z AUTO 00000KT 10SM CLR 16/12 A2982 RMK AO2 SLP125 60000
                 T01560117 10161 20106 50003 $ =
2018-05-23 06:56 METAR KWVL 231056Z AUTO 00000KT 10SM CLR 13/11 A2983 RMK AO2 SLP127 T01280106 $
                 =
2018-05-23 05:56 METAR KWVL 230956Z AUTO 00000KT 10SM CLR 11/10 A2982 RMK AO2 SLP123 T01060100 $
                 =
2018-05-23 04:56 METAR KWVL 230856Z AUTO 00000KT 10SM FEW012 11/10 A2981 RMK AO2 RAE11 SLP122
                 P0000 60000 T01110100 56010 $ =
2018-05-23 03:56 METAR KWVL 230756Z AUTO VRB03KT 10SM -RA CLR 12/10 A2982 RMK AO2 RAB01E15B50
                 SLP123 P0000 T01170100 $ =
2018-05-23 03:28 METAR KWVL 230728Z AUTO 00000KT 10SM SCT016 12/10 A2982 RMK AO2 RAB01E15 P0000 $
                 =
2018-05-23 02:56 METAR KWVL 230656Z AUTO 00000KT 10SM OVC018 12/10 A2983 RMK AO2 SLP127 T01220100
                 $ =
2018-05-23 02:16 METAR KWVL 230616Z AUTO 20003KT 10SM BKN024 BKN029 OVC046 12/10 A2984 RMK AO2 $
                 =
2018-05-23 00:56 METAR KWVL 230456Z AUTO VRB03KT 10SM OVC050 13/11 A2985 RMK AO2 RAB31E44 SLP135
                 P0000 T01280111 402280094 $ =

Support USWX by starting your Amazon purchase here.